Time;durP1;ratioP1;P1;durP2;ratioP2;P2;SDS_P1;SDS_P2;PMS_P1;PMS_P2;Temp;Humidity;BMP_temperature;BMP_pressure;BME280_temperature;BME280_humidity;BME280_pressure;Samples;Min_cycle;Max_cycle;Signal;HPM_P1;HPM_P2
2023/01/27 00:00:35;;;;;;;27.53;13.27;;;5.20;99.90;;;;;;5008149;28;20253;-70
2023/01/27 00:03:01;;;;;;;30.80;13.00;;;5.10;99.90;;;;;;5007336;28;20190;-69
2023/01/27 00:05:26;;;;;;;25.23;12.50;;;5.10;99.90;;;;;;5010465;28;20469;-68
2023/01/27 00:07:52;;;;;;;27.67;13.00;;;5.20;99.90;;;;;;5009100;28;20178;-69
2023/01/27 00:10:19;;;;;;;31.00;13.33;;;5.10;99.90;;;;;;5009743;28;20187;-67
2023/01/27 00:15:33;;;;;;;28.53;13.57;;;5.10;99.90;;;;;;5007904;28;20206;-70
2023/01/27 00:18:02;;;;;;;26.97;13.07;;;5.10;99.90;;;;;;5011863;28;20187;-69
2023/01/27 00:26:07;;;;;;;28.07;13.27;;;5.10;99.90;;;;;;5012199;28;20217;-69
2023/01/27 00:28:37;;;;;;;25.23;11.57;;;5.00;99.90;;;;;;5011386;28;20284;-69
2023/01/27 00:31:06;;;;;;;28.27;13.50;;;5.00;99.90;;;;;;5007224;28;20194;-70
2023/01/27 00:33:35;;;;;;;23.23;10.87;;;5.00;99.90;;;;;;5006797;28;20182;-69
2023/01/27 00:36:02;;;;;;;22.33;11.30;;;5.00;99.90;;;;;;5007617;28;20289;-69
2023/01/27 00:38:32;;;;;;;25.70;11.93;;;5.00;99.90;;;;;;5005759;28;20194;-70
2023/01/27 00:41:18;;;;;;;28.47;13.07;;;5.00;99.90;;;;;;5021752;28;20213;-67
2023/01/27 00:43:51;;;;;;;22.00;11.47;;;4.90;99.90;;;;;;5014095;28;20202;-70
2023/01/27 00:46:23;;;;;;;23.37;11.27;;;4.90;99.90;;;;;;5013592;28;20454;-67
2023/01/27 00:48:53;;;;;;;24.37;10.87;;;5.00;99.90;;;;;;5010335;28;20267;-69
2023/01/27 00:51:19;;;;;;;23.90;11.27;;;4.90;99.90;;;;;;5014088;28;20236;-69
2023/01/27 00:53:45;;;;;;;22.20;10.87;;;4.90;99.90;;;;;;5014702;28;20187;-70
2023/01/27 00:56:11;;;;;;;20.60;10.23;;;5.00;99.90;;;;;;5010532;28;20193;-63
2023/01/27 00:58:41;;;;;;;24.67;10.83;;;4.90;99.90;;;;;;5006119;28;20198;-69
2023/01/27 01:01:11;;;;;;;19.20;10.83;;;4.90;99.90;;;;;;5008166;28;20182;-68
2023/01/27 01:03:37;;;;;;;22.20;11.57;;;4.90;99.90;;;;;;5007485;28;20196;-68
2023/01/27 01:06:10;;;;;;;19.23;10.97;;;4.90;99.90;;;;;;5009633;28;20187;-69
2023/01/27 01:08:37;;;;;;;18.20;10.17;;;4.90;99.90;;;;;;5009477;28;20277;-69
2023/01/27 01:11:04;;;;;;;18.03;10.10;;;5.00;99.90;;;;;;5012072;28;20240;-69
2023/01/27 01:13:36;;;;;;;19.70;11.03;;;4.90;99.90;;;;;;5009445;28;20175;-69
2023/01/27 01:16:10;;;;;;;18.87;10.23;;;4.90;99.90;;;;;;5012136;28;20178;-67
2023/01/27 01:18:36;;;;;;;19.40;10.93;;;4.90;99.90;;;;;;5009391;28;20190;-68
2023/01/27 01:21:02;;;;;;;17.47;10.23;;;4.90;99.90;;;;;;5013007;28;20175;-69
2023/01/27 01:23:30;;;;;;;18.07;9.87;;;4.90;99.90;;;;;;5011386;28;20175;-67
2023/01/27 01:26:00;;;;;;;18.53;10.60;;;4.80;99.90;;;;;;5012421;28;20317;-69
2023/01/27 01:28:28;;;;;;;19.97;10.37;;;4.90;99.90;;;;;;5008898;28;20170;-69
2023/01/27 01:30:54;;;;;;;18.37;10.33;;;4.90;99.90;;;;;;5013130;28;20256;-68
2023/01/27 01:33:19;;;;;;;18.13;10.60;;;4.90;99.90;;;;;;5016180;28;20182;-69
2023/01/27 01:35:47;;;;;;;18.00;10.60;;;4.90;99.90;;;;;;5012895;28;20262;-68
2023/01/27 01:38:13;;;;;;;16.70;10.07;;;4.90;99.90;;;;;;5010458;28;20263;-71
2023/01/27 01:40:43;;;;;;;18.63;9.73;;;4.90;99.90;;;;;;5012441;28;20187;-68
2023/01/27 01:43:14;;;;;;;16.40;9.77;;;4.90;99.90;;;;;;5015088;28;20182;-67
2023/01/27 01:45:53;;;;;;;17.90;9.87;;;4.90;99.90;;;;;;5014193;28;20264;-68
2023/01/27 01:48:33;;;;;;;14.63;8.60;;;4.90;99.90;;;;;;5011100;28;20181;-69
2023/01/27 01:51:19;;;;;;;13.83;9.10;;;4.90;99.90;;;;;;5009811;28;20336;-71
2023/01/27 01:54:09;;;;;;;14.50;8.67;;;4.90;99.90;;;;;;5008907;28;20182;-69
2023/01/27 01:56:42;;;;;;;14.03;9.03;;;4.90;99.90;;;;;;5012570;28;20183;-66
2023/01/27 01:59:26;;;;;;;12.37;8.23;;;4.80;99.90;;;;;;5009826;28;20211;-69
2023/01/27 02:01:59;;;;;;;13.97;8.33;;;4.80;99.90;;;;;;5012982;28;20182;-70
2023/01/27 02:04:31;;;;;;;15.27;9.70;;;4.80;99.90;;;;;;5015348;28;20244;-70
2023/01/27 02:07:31;;;;;;;15.37;9.70;;;4.90;99.90;;;;;;5012849;28;20174;-69
2023/01/27 02:09:59;;;;;;;13.03;9.27;;;4.90;99.90;;;;;;5013986;28;20187;-69
2023/01/27 02:12:24;;;;;;;14.90;9.50;;;4.90;99.90;;;;;;5011471;28;20201;-64
2023/01/27 02:14:50;;;;;;;16.67;9.47;;;4.90;99.90;;;;;;5009457;28;20228;-66
2023/01/27 02:17:16;;;;;;;15.47;9.77;;;4.80;99.90;;;;;;5010732;28;20429;-67
2023/01/27 02:20:25;;;;;;;17.70;10.23;;;4.90;99.90;;;;;;5014421;28;20187;-67
2023/01/27 02:23:12;;;;;;;14.07;9.30;;;4.90;99.90;;;;;;4992580;28;20474;-67
2023/01/27 02:25:54;;;;;;;13.87;8.93;;;4.90;99.90;;;;;;5013476;28;20272;-66
2023/01/27 02:28:21;;;;;;;16.47;10.17;;;4.90;99.90;;;;;;5008410;28;20228;-66
2023/01/27 02:30:47;;;;;;;15.80;9.70;;;4.90;99.90;;;;;;5011145;28;20179;-69
2023/01/27 02:33:16;;;;;;;15.73;9.83;;;4.90;99.90;;;;;;5008548;28;20236;-67
2023/01/27 02:35:49;;;;;;;14.43;8.90;;;4.80;99.90;;;;;;5009879;28;20183;-69
2023/01/27 02:38:16;;;;;;;15.27;9.13;;;4.80;99.90;;;;;;5010882;28;20206;-69
2023/01/27 02:40:47;;;;;;;13.20;8.20;;;4.90;99.90;;;;;;5012033;28;20301;-68
2023/01/27 02:43:12;;;;;;;14.30;8.00;;;4.90;99.90;;;;;;5010682;28;20174;-68
2023/01/27 02:45:40;;;;;;;11.23;7.87;;;4.90;99.90;;;;;;5015057;28;20214;-68
2023/01/27 02:48:08;;;;;;;15.53;9.27;;;4.90;99.90;;;;;;5012480;28;20182;-64
2023/01/27 02:50:33;;;;;;;14.17;8.17;;;4.90;99.90;;;;;;5009710;28;20179;-66
2023/01/27 02:52:59;;;;;;;11.73;8.20;;;4.90;99.90;;;;;;5016476;28;20293;-69
2023/01/27 02:55:25;;;;;;;16.30;8.23;;;4.80;99.90;;;;;;5014610;28;20260;-67
2023/01/27 02:57:53;;;;;;;12.57;7.37;;;4.80;99.90;;;;;;5012583;28;20174;-64
2023/01/27 03:00:20;;;;;;;15.67;7.70;;;4.80;99.90;;;;;;5012958;28;20217;-68
2023/01/27 03:02:46;;;;;;;13.27;8.47;;;4.80;99.90;;;;;;5002563;28;20179;-68
2023/01/27 03:05:13;;;;;;;12.93;7.57;;;4.90;99.90;;;;;;5014390;28;20225;-68
2023/01/27 03:07:41;;;;;;;12.03;7.10;;;4.90;99.90;;;;;;5009294;28;20179;-65
2023/01/27 03:10:08;;;;;;;9.80;6.87;;;4.80;99.90;;;;;;5011901;28;20202;-69
2023/01/27 03:12:33;;;;;;;9.03;6.73;;;4.80;99.90;;;;;;5014352;28;20174;-69
2023/01/27 03:20:34;;;;;;;13.00;7.27;;;4.80;99.90;;;;;;5009289;28;20197;-68
2023/01/27 03:23:00;;;;;;;9.53;6.10;;;4.80;99.90;;;;;;5013984;28;20186;-68
2023/01/27 03:25:26;;;;;;;10.20;6.10;;;4.80;99.90;;;;;;5009194;28;20478;-67
2023/01/27 03:27:51;;;;;;;8.77;6.10;;;4.80;99.90;;;;;;5012867;28;20187;-68
2023/01/27 03:30:17;;;;;;;9.73;6.20;;;4.80;99.90;;;;;;5012857;28;20231;-65
2023/01/27 03:32:45;;;;;;;9.97;6.03;;;4.80;99.90;;;;;;5005742;28;20267;-68
2023/01/27 03:35:12;;;;;;;9.13;6.07;;;4.80;99.90;;;;;;5012448;28;20185;-67
2023/01/27 03:48:39;;;;;;;8.43;5.70;;;4.80;99.90;;;;;;5012081;28;20206;-67
2023/01/27 03:51:06;;;;;;;7.47;5.13;;;4.80;99.90;;;;;;5009707;28;20198;-69
2023/01/27 03:53:32;;;;;;;6.87;5.13;;;4.80;99.90;;;;;;5009414;28;20394;-67
2023/01/27 03:55:58;;;;;;;8.30;4.87;;;4.80;99.90;;;;;;5008742;28;20209;-68
2023/01/27 03:58:23;;;;;;;7.10;4.70;;;4.80;99.90;;;;;;5009348;28;20214;-69
2023/01/27 04:00:52;;;;;;;6.83;4.63;;;4.80;99.90;;;;;;5008403;28;20274;-68
2023/01/27 04:08:56;;;;;;;6.47;4.50;;;4.80;99.90;;;;;;5009895;28;20344;-68
2023/01/27 04:14:10;;;;;;;8.70;4.80;;;4.80;99.90;;;;;;5008199;28;20421;-68
2023/01/27 04:16:39;;;;;;;6.93;5.00;;;4.80;99.90;;;;;;5010158;28;20194;-66
2023/01/27 04:19:07;;;;;;;6.27;4.43;;;4.80;99.90;;;;;;5008325;28;20176;-66
2023/01/27 04:21:35;;;;;;;6.37;4.23;;;4.80;99.90;;;;;;5007836;28;20209;-68
2023/01/27 04:24:03;;;;;;;6.80;4.43;;;4.80;99.90;;;;;;5009693;28;20201;-68
2023/01/27 04:26:33;;;;;;;6.40;5.00;;;4.80;99.90;;;;;;5010358;28;20170;-67
2023/01/27 04:29:03;;;;;;;6.27;4.43;;;4.80;99.90;;;;;;5010683;28;20198;-65
2023/01/27 04:31:31;;;;;;;7.00;4.47;;;4.80;99.90;;;;;;5007621;28;20205;-65
2023/01/27 04:33:56;;;;;;;8.07;4.93;;;4.80;99.90;;;;;;5012631;28;20186;-65
2023/01/27 04:36:27;;;;;;;6.80;4.13;;;4.80;99.90;;;;;;5008484;28;20182;-68
2023/01/27 04:38:52;;;;;;;8.63;5.43;;;4.80;99.90;;;;;;5011286;28;21765;-67
2023/01/27 04:41:18;;;;;;;7.00;5.03;;;4.80;99.90;;;;;;5008559;28;20264;-68
2023/01/27 04:43:43;;;;;;;6.43;3.97;;;4.80;99.90;;;;;;5009153;28;20182;-68
2023/01/27 04:46:14;;;;;;;5.67;4.17;;;4.80;99.90;;;;;;5006327;28;20190;-68
2023/01/27 04:48:39;;;;;;;8.83;4.27;;;4.80;99.90;;;;;;5005624;28;20195;-68
2023/01/27 04:51:10;;;;;;;6.50;4.37;;;4.90;99.90;;;;;;5007510;28;20269;-66
2023/01/27 04:53:38;;;;;;;6.57;4.17;;;4.80;99.90;;;;;;5003676;28;20183;-68
2023/01/27 04:56:26;;;;;;;6.87;4.30;;;4.90;99.90;;;;;;5010398;28;20192;-68
2023/01/27 04:58:55;;;;;;;5.07;3.50;;;4.80;99.90;;;;;;5011153;28;20214;-68
2023/01/27 05:01:21;;;;;;;6.30;4.33;;;4.80;99.90;;;;;;5011758;28;20276;-66
2023/01/27 05:03:46;;;;;;;6.43;4.60;;;4.80;99.90;;;;;;5010030;28;20178;-67
2023/01/27 05:06:15;;;;;;;5.80;4.43;;;4.80;99.90;;;;;;5004977;28;20273;-68
2023/01/27 05:08:43;;;;;;;5.90;4.43;;;4.80;99.90;;;;;;5009169;28;20256;-68
2023/01/27 05:11:12;;;;;;;7.50;4.00;;;4.80;99.90;;;;;;5005361;28;20183;-68
2023/01/27 05:13:40;;;;;;;6.80;4.30;;;4.80;99.90;;;;;;5007834;28;20203;-68
2023/01/27 05:16:08;;;;;;;6.33;4.47;;;4.70;99.90;;;;;;5009276;28;20198;-66
2023/01/27 05:18:35;;;;;;;5.50;4.30;;;4.80;99.90;;;;;;5011426;28;20187;-68
2023/01/27 05:21:01;;;;;;;5.93;4.23;;;4.70;99.90;;;;;;5010946;28;20341;-66
2023/01/27 05:23:35;;;;;;;6.00;4.40;;;4.70;99.90;;;;;;5009042;28;20266;-67
2023/01/27 05:26:13;;;;;;;5.63;4.00;;;4.70;99.90;;;;;;5009661;28;20495;-65
2023/01/27 05:28:43;;;;;;;6.60;4.33;;;4.80;99.90;;;;;;5003391;28;20191;-67
2023/01/27 05:31:10;;;;;;;5.23;3.87;;;4.70;99.90;;;;;;5005658;28;20206;-68
2023/01/27 05:33:39;;;;;;;5.57;4.07;;;4.70;99.90;;;;;;5008524;28;20197;-67
2023/01/27 05:36:09;;;;;;;5.90;4.03;;;4.70;99.90;;;;;;5008403;28;20180;-68
2023/01/27 05:38:35;;;;;;;5.73;4.30;;;4.70;99.90;;;;;;5007767;28;20202;-68
2023/01/27 05:41:06;;;;;;;7.30;4.43;;;4.70;99.90;;;;;;5009450;28;20197;-67
2023/01/27 05:43:33;;;;;;;6.90;4.30;;;4.70;99.90;;;;;;5008781;28;20217;-66
2023/01/27 05:46:02;;;;;;;5.43;3.53;;;4.70;99.90;;;;;;5009163;28;20260;-68
2023/01/27 05:48:30;;;;;;;6.03;4.30;;;4.70;99.90;;;;;;5011655;28;20175;-69
2023/01/27 05:50:57;;;;;;;7.47;4.30;;;4.70;99.90;;;;;;5004804;28;20264;-66
2023/01/27 05:53:25;;;;;;;7.13;4.83;;;4.70;99.90;;;;;;5009553;28;20206;-68
2023/01/27 05:55:52;;;;;;;6.33;4.67;;;4.70;99.90;;;;;;5003719;28;20195;-64
2023/01/27 05:58:18;;;;;;;6.10;4.27;;;4.80;99.90;;;;;;5008941;28;20301;-67
2023/01/27 06:00:49;;;;;;;7.17;4.40;;;4.70;99.90;;;;;;5005803;28;20186;-63
2023/01/27 06:03:22;;;;;;;8.00;5.33;;;4.80;99.90;;;;;;5010507;28;20292;-67
2023/01/27 06:05:55;;;;;;;7.20;4.93;;;4.80;99.90;;;;;;5009782;28;20206;-66
2023/01/27 06:08:25;;;;;;;6.13;4.00;;;4.70;99.90;;;;;;5010846;28;20302;-68
2023/01/27 06:10:53;;;;;;;6.77;4.27;;;4.70;99.90;;;;;;5005087;28;20263;-68
2023/01/27 06:13:21;;;;;;;5.87;4.30;;;4.70;99.90;;;;;;5006789;28;20261;-68
2023/01/27 06:15:48;;;;;;;5.73;4.17;;;4.70;99.90;;;;;;5009765;28;20213;-66
2023/01/27 06:18:15;;;;;;;7.30;4.63;;;4.80;99.90;;;;;;5012997;28;20209;-68
2023/01/27 06:20:42;;;;;;;6.67;4.83;;;4.70;99.90;;;;;;5013702;28;20426;-68
2023/01/27 06:23:11;;;;;;;6.77;4.77;;;4.70;99.90;;;;;;5010449;28;20200;-67
2023/01/27 06:25:45;;;;;;;7.33;4.43;;;4.80;99.90;;;;;;5014260;28;20187;-68
2023/01/27 06:28:11;;;;;;;6.07;4.10;;;4.80;99.90;;;;;;5015186;28;20222;-67
2023/01/27 06:30:40;;;;;;;6.23;4.60;;;4.80;99.90;;;;;;5010403;28;20174;-68
2023/01/27 06:33:06;;;;;;;8.43;5.23;;;4.80;99.90;;;;;;5012573;28;20218;-68
2023/01/27 06:35:34;;;;;;;7.27;4.53;;;4.80;99.90;;;;;;5013745;28;20329;-68
2023/01/27 06:38:04;;;;;;;6.83;4.60;;;4.80;99.90;;;;;;5011101;28;20183;-66
2023/01/27 06:40:31;;;;;;;8.67;5.47;;;4.80;99.90;;;;;;5011862;28;20368;-67
2023/01/27 06:42:58;;;;;;;7.23;5.00;;;4.80;99.90;;;;;;5010877;28;20174;-68
2023/01/27 06:45:26;;;;;;;6.50;4.53;;;4.80;99.90;;;;;;5017455;28;20249;-67
2023/01/27 06:48:02;;;;;;;6.37;4.70;;;4.80;99.90;;;;;;5011524;28;20265;-65
2023/01/27 06:50:28;;;;;;;6.13;4.57;;;4.80;99.90;;;;;;5004147;28;20203;-66
2023/01/27 06:53:05;;;;;;;5.70;4.13;;;4.90;99.90;;;;;;4996844;28;20218;-65
2023/01/27 06:55:34;;;;;;;6.23;4.40;;;4.90;99.90;;;;;;5012446;28;20179;-65
2023/01/27 06:58:03;;;;;;;5.73;4.23;;;4.90;99.90;;;;;;5004304;28;20272;-65
2023/01/27 07:00:31;;;;;;;4.97;3.90;;;4.80;99.90;;;;;;5012526;28;20198;-65
2023/01/27 07:02:57;;;;;;;6.30;4.40;;;4.90;99.90;;;;;;5009871;28;20194;-65
2023/01/27 07:05:23;;;;;;;6.07;4.43;;;4.80;99.90;;;;;;5015584;28;20221;-66
2023/01/27 07:07:51;;;;;;;6.33;4.30;;;4.90;99.90;;;;;;5011691;28;20205;-64
2023/01/27 07:10:21;;;;;;;6.77;5.13;;;4.90;99.90;;;;;;5013579;28;20190;-65
2023/01/27 07:12:49;;;;;;;7.00;5.27;;;4.90;99.90;;;;;;5011616;28;20205;-67
2023/01/27 07:15:15;;;;;;;7.27;5.23;;;4.90;99.90;;;;;;5007235;28;20245;-65
2023/01/27 07:17:41;;;;;;;7.23;5.17;;;4.90;99.90;;;;;;5004451;28;20183;-65
2023/01/27 07:20:12;;;;;;;7.23;5.40;;;4.90;99.90;;;;;;5011501;28;20190;-65
2023/01/27 07:22:38;;;;;;;7.57;5.60;;;4.90;99.90;;;;;;5008760;28;20183;-66
2023/01/27 07:25:05;;;;;;;9.03;6.30;;;5.30;99.90;;;;;;5011911;28;20274;-66
2023/01/27 07:27:33;;;;;;;6.10;4.73;;;4.90;99.90;;;;;;5012396;28;20241;-65
2023/01/27 07:30:04;;;;;;;8.53;6.13;;;5.00;99.90;;;;;;5007868;28;20191;-65
2023/01/27 07:32:30;;;;;;;7.13;4.67;;;4.90;99.90;;;;;;5021180;28;20195;-66
2023/01/27 07:34:57;;;;;;;7.77;5.77;;;5.00;99.90;;;;;;5005889;28;20191;-66
2023/01/27 07:37:25;;;;;;;8.70;6.47;;;5.00;99.90;;;;;;5011936;28;20214;-65
2023/01/27 07:39:53;;;;;;;7.03;5.53;;;5.00;99.90;;;;;;5008133;28;20266;-66
2023/01/27 07:42:19;;;;;;;7.43;5.30;;;5.00;99.90;;;;;;5011961;28;20250;-65
2023/01/27 07:44:44;;;;;;;9.63;6.03;;;5.00;99.90;;;;;;5016404;28;20292;-67
2023/01/27 07:47:14;;;;;;;7.87;6.43;;;5.00;99.90;;;;;;5010593;28;20186;-65
2023/01/27 07:49:42;;;;;;;8.10;5.80;;;5.00;99.90;;;;;;5005630;28;20185;-63
2023/01/27 07:52:10;;;;;;;8.10;5.80;;;5.00;99.90;;;;;;5015369;28;20214;-65
2023/01/27 07:54:36;;;;;;;7.53;5.50;;;5.00;99.90;;;;;;5010804;28;20179;-64
2023/01/27 07:57:01;;;;;;;8.20;5.37;;;5.10;99.90;;;;;;5009142;28;20229;-64
2023/01/27 07:59:27;;;;;;;6.93;5.27;;;5.00;99.90;;;;;;5011871;28;20170;-65
2023/01/27 08:01:53;;;;;;;8.20;5.50;;;5.10;99.90;;;;;;5013040;28;20182;-65
2023/01/27 08:04:21;;;;;;;7.37;5.43;;;5.10;99.90;;;;;;5006053;28;20206;-65
2023/01/27 08:06:46;;;;;;;7.93;6.00;;;5.10;99.90;;;;;;5013454;28;20182;-65
2023/01/27 08:09:12;;;;;;;8.47;5.93;;;5.20;99.90;;;;;;5011632;28;20193;-65
2023/01/27 08:11:40;;;;;;;7.73;5.63;;;5.10;99.90;;;;;;5010962;28;20174;-65
2023/01/27 08:14:06;;;;;;;7.53;5.43;;;5.10;99.90;;;;;;5006535;28;20223;-66
2023/01/27 08:16:33;;;;;;;7.50;5.57;;;5.10;99.90;;;;;;5007695;28;20227;-65
2023/01/27 08:18:59;;;;;;;7.33;5.17;;;5.20;99.90;;;;;;5008247;28;20183;-65
2023/01/27 08:21:31;;;;;;;7.10;4.83;;;5.20;99.90;;;;;;5009821;28;20189;-65
2023/01/27 08:23:57;;;;;;;7.80;5.43;;;5.20;99.90;;;;;;5009857;28;20178;-65
2023/01/27 08:26:23;;;;;;;6.90;4.97;;;5.20;99.90;;;;;;5011227;28;20179;-65
2023/01/27 08:28:53;;;;;;;7.10;4.67;;;5.30;99.90;;;;;;5010408;28;20259;-66
2023/01/27 08:31:21;;;;;;;7.20;5.47;;;5.30;99.90;;;;;;5008019;28;21485;-66
2023/01/27 08:33:51;;;;;;;6.70;4.97;;;5.30;99.90;;;;;;5007885;28;20229;-66
2023/01/27 08:36:20;;;;;;;6.17;4.43;;;5.50;99.90;;;;;;5013091;28;20257;-64
2023/01/27 08:38:49;;;;;;;6.70;5.20;;;5.40;99.90;;;;;;5007957;28;20179;-66
2023/01/27 08:41:18;;;;;;;6.70;5.00;;;5.50;99.90;;;;;;5008737;28;20179;-65
2023/01/27 08:43:44;;;;;;;6.57;5.17;;;5.60;99.90;;;;;;5008529;28;20174;-65
2023/01/27 08:46:11;;;;;;;6.73;5.03;;;5.50;99.90;;;;;;5014797;28;20241;-66
2023/01/27 08:48:37;;;;;;;6.63;5.07;;;5.70;99.90;;;;;;5009414;28;20198;-66
2023/01/27 08:51:04;;;;;;;6.00;4.53;;;5.70;99.90;;;;;;5013897;28;20186;-67
2023/01/27 08:53:35;;;;;;;6.30;4.77;;;5.70;99.90;;;;;;5014550;28;20193;-66
2023/01/27 08:56:04;;;;;;;6.63;4.70;;;5.80;99.90;;;;;;5004640;28;20191;-66
2023/01/27 08:58:29;;;;;;;6.07;4.60;;;5.80;99.90;;;;;;5010373;28;20186;-66
2023/01/27 09:01:00;;;;;;;5.60;4.57;;;5.90;99.90;;;;;;5010571;28;20289;-65
2023/01/27 09:03:25;;;;;;;6.07;4.70;;;6.00;99.90;;;;;;5009923;28;20182;-65
2023/01/27 09:05:53;;;;;;;5.97;4.50;;;5.90;99.90;;;;;;5008948;28;20199;-66
2023/01/27 09:08:19;;;;;;;5.50;4.23;;;6.00;99.90;;;;;;5012161;28;20202;-66
2023/01/27 09:10:44;;;;;;;5.40;4.30;;;6.10;99.90;;;;;;5005268;28;20178;-66
2023/01/27 09:13:10;;;;;;;6.03;4.40;;;6.10;99.90;;;;;;5008829;28;20190;-66
2023/01/27 09:15:37;;;;;;;5.63;4.40;;;6.20;99.90;;;;;;5011612;28;20183;-65
2023/01/27 09:18:03;;;;;;;5.27;4.33;;;6.20;99.90;;;;;;5007475;28;20195;-66
2023/01/27 09:20:33;;;;;;;5.67;4.70;;;6.30;99.90;;;;;;5007251;28;20256;-65
2023/01/27 09:23:00;;;;;;;4.90;3.93;;;6.40;99.90;;;;;;5006518;28;20174;-65
2023/01/27 09:25:25;;;;;;;5.00;4.17;;;6.80;99.90;;;;;;5010505;28;20267;-66
2023/01/27 09:27:57;;;;;;;4.13;3.50;;;7.10;99.90;;;;;;5008135;28;20190;-65
2023/01/27 09:30:25;;;;;;;4.83;3.73;;;7.40;99.90;;;;;;5010200;28;20183;-66
2023/01/27 09:32:50;;;;;;;4.40;3.40;;;7.60;99.90;;;;;;5008060;28;20198;-65
2023/01/27 09:35:19;;;;;;;4.03;3.20;;;7.80;99.90;;;;;;5008294;28;20210;-65
2023/01/27 09:37:50;;;;;;;4.33;3.30;;;7.90;99.90;;;;;;5007609;28;20186;-65
2023/01/27 09:40:34;;;;;;;3.47;2.80;;;8.00;99.90;;;;;;5006905;28;20226;-66
2023/01/27 09:43:18;;;;;;;3.30;2.97;;;7.90;99.90;;;;;;5008092;28;20174;-65
2023/01/27 09:45:53;;;;;;;2.93;2.47;;;7.80;99.90;;;;;;5011981;28;20244;-65
2023/01/27 09:48:34;;;;;;;2.93;2.47;;;7.70;99.90;;;;;;5008533;28;20200;-66
2023/01/27 09:51:21;;;;;;;2.60;2.40;;;7.50;99.90;;;;;;5007959;28;20189;-65
2023/01/27 09:53:59;;;;;;;3.00;2.70;;;7.40;99.90;;;;;;5014369;28;20447;-65
2023/01/27 09:56:45;;;;;;;2.73;2.27;;;7.30;99.90;;;;;;5013768;28;20209;-65
2023/01/27 09:59:25;;;;;;;2.47;2.27;;;7.20;99.90;;;;;;5011313;28;20285;-65
2023/01/27 10:02:15;;;;;;;3.30;2.23;;;7.10;99.90;;;;;;5012369;28;20193;-65
2023/01/27 10:04:52;;;;;;;3.97;2.20;;;7.10;99.90;;;;;;5013680;28;20214;-65
2023/01/27 10:07:44;;;;;;;3.17;2.30;;;7.10;99.90;;;;;;5013970;28;20190;-65
2023/01/27 10:10:19;;;;;;;2.57;1.87;;;7.00;99.90;;;;;;5013322;28;20282;-66
2023/01/27 10:12:51;;;;;;;2.97;1.97;;;7.00;99.90;;;;;;5009709;28;20174;-65
2023/01/27 10:15:22;;;;;;;2.10;1.80;;;6.90;99.90;;;;;;5013284;28;20201;-66
2023/01/27 10:18:02;;;;;;;1.87;1.60;;;6.90;99.90;;;;;;5010916;28;20206;-65
2023/01/27 10:20:33;;;;;;;2.73;1.93;;;6.90;99.90;;;;;;5012861;28;20233;-65
2023/01/27 10:23:08;;;;;;;2.00;1.80;;;6.90;99.90;;;;;;5008950;28;20178;-65
2023/01/27 10:26:07;;;;;;;1.70;1.60;;;6.90;99.90;;;;;;5029735;28;20232;-66
2023/01/27 10:28:36;;;;;;;1.80;1.60;;;6.90;99.90;;;;;;5006437;28;20179;-65
2023/01/27 10:31:13;;;;;;;1.70;1.50;;;6.90;99.90;;;;;;5009853;28;20268;-66
2023/01/27 10:33:54;;;;;;;1.60;1.50;;;6.90;99.90;;;;;;5012110;28;20192;-65
2023/01/27 10:36:26;;;;;;;1.50;1.40;;;6.90;99.90;;;;;;5011200;28;20206;-65
2023/01/27 10:39:19;;;;;;;1.63;1.50;;;6.90;99.90;;;;;;5010524;28;20174;-65
2023/01/27 10:42:03;;;;;;;1.33;1.23;;;6.90;99.90;;;;;;5004667;28;20189;-65
2023/01/27 10:45:06;;;;;;;1.43;1.30;;;6.90;99.90;;;;;;5015843;28;20199;-66
2023/01/27 10:47:42;;;;;;;1.37;1.20;;;6.80;99.90;;;;;;5009974;28;20175;-65
2023/01/27 10:50:18;;;;;;;1.50;1.33;;;6.80;99.90;;;;;;5016776;28;20202;-65
2023/01/27 10:52:52;;;;;;;1.30;1.20;;;6.90;99.90;;;;;;5016326;28;20190;-66
2023/01/27 10:55:42;;;;;;;1.33;1.13;;;6.90;99.90;;;;;;5009421;28;20182;-65
2023/01/27 10:58:29;;;;;;;1.27;1.03;;;6.90;99.90;;;;;;5009315;28;20179;-66
2023/01/27 11:01:04;;;;;;;0.93;0.83;;;6.90;99.90;;;;;;5013005;28;20240;-65
2023/01/27 11:03:39;;;;;;;1.00;0.87;;;7.00;99.90;;;;;;5011112;28;20213;-66
2023/01/27 11:06:19;;;;;;;1.40;1.00;;;7.00;99.90;;;;;;5010549;28;20212;-65
2023/01/27 11:08:48;;;;;;;0.90;0.80;;;7.10;99.90;;;;;;5019150;28;20195;-65
2023/01/27 11:14:31;;;;;;;1.00;0.90;;;7.20;99.90;;;;;;5013049;28;20181;-65
2023/01/27 11:17:12;;;;;;;0.90;0.70;;;7.20;99.90;;;;;;5010749;28;20185;-66
2023/01/27 11:19:55;;;;;;;0.90;0.80;;;7.30;99.90;;;;;;5011309;28;20463;-66
2023/01/27 11:22:26;;;;;;;3.47;1.20;;;7.30;99.90;;;;;;5008668;28;20213;-65
2023/01/27 11:24:56;;;;;;;1.10;0.97;;;7.30;99.90;;;;;;5011545;28;20217;-64
2023/01/27 11:27:52;;;;;;;1.40;1.00;;;7.40;99.90;;;;;;5010017;28;20171;-65
2023/01/27 11:30:32;;;;;;;1.20;1.00;;;7.40;99.90;;;;;;5012585;28;20194;-65
2023/01/27 11:33:07;;;;;;;1.10;1.00;;;7.50;99.90;;;;;;5012185;28;20178;-64
2023/01/27 11:35:37;;;;;;;0.90;0.80;;;7.50;99.90;;;;;;5021845;28;20217;-64
2023/01/27 11:38:05;;;;;;;1.47;1.30;;;7.50;99.90;;;;;;5005520;28;20207;-65
2023/01/27 11:40:36;;;;;;;2.30;1.20;;;7.50;99.90;;;;;;5010914;28;20210;-65
2023/01/27 11:43:02;;;;;;;2.63;1.10;;;7.60;99.90;;;;;;5010781;28;20187;-64
2023/01/27 11:45:33;;;;;;;1.00;0.90;;;7.60;99.90;;;;;;5013766;28;20272;-65
2023/01/27 11:48:01;;;;;;;1.30;1.10;;;7.60;99.90;;;;;;5011387;28;20195;-65
2023/01/27 11:50:34;;;;;;;1.40;1.00;;;7.60;99.90;;;;;;5008927;28;20284;-65
2023/01/27 11:53:15;;;;;;;1.10;0.80;;;7.70;99.90;;;;;;5009558;28;20191;-65
2023/01/27 11:56:06;;;;;;;0.77;0.77;;;7.70;99.90;;;;;;5016071;28;20186;-65
2023/01/27 11:58:58;;;;;;;1.20;1.10;;;7.70;99.90;;;;;;5012819;28;20278;-65
2023/01/27 12:01:54;;;;;;;0.80;0.77;;;7.80;99.90;;;;;;5007914;28;20205;-64
2023/01/27 12:04:51;;;;;;;0.80;0.80;;;7.80;99.90;;;;;;4999603;28;20332;-65
2023/01/27 12:07:38;;;;;;;1.30;0.93;;;7.80;99.90;;;;;;4970612;28;20222;-65
2023/01/27 12:10:26;;;;;;;1.40;0.90;;;7.80;99.90;;;;;;5011085;28;20182;-64
2023/01/27 12:12:55;;;;;;;1.03;0.93;;;7.80;99.90;;;;;;5012801;28;20448;-64
2023/01/27 12:15:25;;;;;;;1.40;1.10;;;7.90;99.90;;;;;;5009863;28;20207;-64
2023/01/27 12:18:13;;;;;;;1.20;1.10;;;7.80;99.90;;;;;;5005770;28;20175;-64
2023/01/27 12:20:43;;;;;;;1.47;1.20;;;7.90;99.90;;;;;;5010122;28;20201;-64
2023/01/27 12:23:38;;;;;;;1.37;1.10;;;7.80;99.90;;;;;;5010210;28;20276;-64
2023/01/27 12:26:07;;;;;;;1.20;1.10;;;7.80;99.90;;;;;;5011517;28;20218;-64
2023/01/27 12:28:37;;;;;;;1.27;1.10;;;7.80;99.90;;;;;;5008540;28;20189;-65
2023/01/27 12:31:11;;;;;;;1.23;1.13;;;7.80;99.90;;;;;;5022423;28;20278;-64
2023/01/27 12:33:42;;;;;;;1.20;1.03;;;7.80;99.90;;;;;;5002940;28;20177;-64
2023/01/27 12:36:13;;;;;;;1.10;1.00;;;7.80;99.90;;;;;;5005659;28;20293;-64
2023/01/27 12:38:57;;;;;;;1.13;1.03;;;7.80;99.90;;;;;;5010169;28;20198;-63
2023/01/27 12:41:27;;;;;;;1.40;1.20;;;7.90;99.90;;;;;;5006038;28;20255;-65
2023/01/27 12:44:06;;;;;;;1.57;1.47;;;7.90;99.90;;;;;;5013164;28;20324;-64
2023/01/27 12:46:34;;;;;;;1.13;1.03;;;7.90;99.90;;;;;;5013953;28;20182;-65
2023/01/27 12:49:13;;;;;;;1.30;1.10;;;7.90;99.90;;;;;;5010097;28;20183;-65
2023/01/27 12:51:49;;;;;;;1.30;1.20;;;8.00;99.90;;;;;;5014041;28;20222;-65
2023/01/27 12:54:23;;;;;;;2.33;1.00;;;8.00;99.90;;;;;;5013931;28;20190;-65
2023/01/27 12:56:52;;;;;;;1.20;1.10;;;8.10;99.90;;;;;;5008046;28;20207;-66
2023/01/27 12:59:23;;;;;;;1.53;1.30;;;8.10;99.90;;;;;;5010110;28;20199;-65
2023/01/27 13:02:13;;;;;;;1.40;1.20;;;8.20;99.90;;;;;;5025003;28;20269;-65
2023/01/27 13:04:40;;;;;;;3.00;1.10;;;8.20;99.90;;;;;;5009621;28;20190;-65
2023/01/27 13:07:16;;;;;;;1.23;1.13;;;8.20;99.90;;;;;;5006928;28;20193;-65
2023/01/27 13:09:59;;;;;;;1.20;1.10;;;8.30;99.90;;;;;;5005542;28;20189;-66
2023/01/27 13:12:45;;;;;;;1.30;1.20;;;8.30;99.90;;;;;;5004600;28;20174;-66
2023/01/27 13:15:16;;;;;;;1.03;0.93;;;8.40;99.90;;;;;;5023992;28;20277;-66
2023/01/27 13:17:49;;;;;;;1.10;1.00;;;8.60;99.90;;;;;;5005105;28;20242;-66
2023/01/27 13:20:39;;;;;;;1.37;1.10;;;8.80;99.90;;;;;;5009093;28;20298;-65
2023/01/27 13:23:10;;;;;;;1.10;1.00;;;8.90;99.90;;;;;;5005289;28;20186;-66
2023/01/27 13:26:06;;;;;;;1.10;0.90;;;9.00;99.90;;;;;;5009676;28;20207;-66
2023/01/27 13:29:05;;;;;;;1.10;1.00;;;9.10;99.90;;;;;;4998321;28;20179;-66
2023/01/27 13:32:02;;;;;;;1.10;0.93;;;9.10;99.90;;;;;;5009552;28;20191;-66
2023/01/27 13:34:44;;;;;;;1.17;0.83;;;9.00;99.90;;;;;;5002712;28;20187;-66
2023/01/27 13:37:18;;;;;;;1.87;0.90;;;8.90;99.90;;;;;;5014552;28;20273;-65
2023/01/27 13:40:05;;;;;;;0.70;0.70;;;8.90;99.90;;;;;;5003304;28;20189;-66
2023/01/27 13:42:50;;;;;;;0.60;0.60;;;8.80;99.90;;;;;;5013499;28;20174;-65
2023/01/27 13:45:27;;;;;;;0.97;0.70;;;8.70;99.90;;;;;;5002624;28;20199;-66
2023/01/27 13:48:13;;;;;;;0.60;0.60;;;8.60;99.90;;;;;;5010917;28;20170;-65
2023/01/27 13:50:45;;;;;;;0.93;0.70;;;8.60;99.90;;;;;;5026897;28;20240;-66
2023/01/27 13:53:14;;;;;;;0.60;0.60;;;8.50;99.90;;;;;;5006233;28;20298;-64